createdAt,value
2023-03-22T00:02:04.524Z,99343.00
2023-03-22T00:04:31.318Z,99343.78
2023-03-22T00:06:57.837Z,99347.25
2023-03-22T00:09:24.465Z,99347.25
2023-03-22T00:11:51.116Z,99359.25
2023-03-22T00:14:18.468Z,99355.88
2023-03-22T00:16:46.428Z,99342.22
2023-03-22T00:19:13.146Z,99340.66
2023-03-22T00:21:39.683Z,99348.31
2023-03-22T00:24:06.721Z,99350.94
2023-03-22T00:26:33.390Z,99349.25
2023-03-22T00:29:00.739Z,99352.63
2023-03-22T00:31:27.425Z,99349.19
2023-03-22T00:33:54.125Z,99347.47
2023-03-22T00:36:20.716Z,99357.75
2023-03-22T00:38:47.307Z,99347.56
2023-03-22T00:41:18.117Z,99347.56
2023-03-22T00:43:46.296Z,99351.81
2023-03-22T00:46:15.043Z,99343.22
2023-03-22T00:48:42.158Z,99343.28
2023-03-22T00:51:11.580Z,99346.63
2023-03-22T00:53:42.337Z,99347.47
2023-03-22T00:56:09.803Z,99341.47
2023-03-22T00:58:36.318Z,99350.09
2023-03-22T01:01:03.010Z,99344.09
2023-03-22T01:03:29.669Z,99342.44
2023-03-22T01:05:56.273Z,99345.84
2023-03-22T01:08:24.048Z,99349.19
2023-03-22T01:10:51.162Z,99339.72
2023-03-22T01:13:18.196Z,99346.53
2023-03-22T01:15:45.081Z,99335.38
2023-03-22T01:18:11.757Z,99333.56
2023-03-22T01:20:38.756Z,99340.44
2023-03-22T01:23:06.324Z,99338.69
2023-03-22T01:25:33.206Z,99336.97
2023-03-22T01:28:02.297Z,99337.72
2023-03-22T01:30:29.744Z,99340.19
2023-03-22T01:32:56.304Z,99340.09
2023-03-22T01:35:23.142Z,99338.28
2023-03-22T01:37:49.798Z,99343.34
2023-03-22T01:40:16.436Z,99351.84
2023-03-22T01:42:43.144Z,99351.78
2023-03-22T01:45:16.707Z,99346.69
2023-03-22T01:47:57.741Z,99354.34
2023-03-22T01:50:25.901Z,99358.56
2023-03-22T01:52:55.838Z,99360.28
2023-03-22T01:55:26.060Z,99359.34
2023-03-22T01:57:54.105Z,99360.09
2023-03-22T02:00:21.112Z,99364.41
2023-03-22T02:02:51.398Z,99366.97
2023-03-22T02:05:19.060Z,99359.25
2023-03-22T02:07:46.068Z,99368.66
2023-03-22T02:10:15.658Z,99374.56
2023-03-22T02:13:00.674Z,99370.31
2023-03-22T02:15:37.586Z,99365.19
2023-03-22T02:18:33.141Z,99367.66
2023-03-22T02:21:18.357Z,99368.44
2023-03-22T02:23:50.785Z,99369.25
2023-03-22T02:26:32.745Z,99376.09
2023-03-22T02:29:22.929Z,99377.00
2023-03-22T02:32:35.967Z,99372.84
2023-03-22T02:35:05.558Z,99374.56
2023-03-22T02:37:33.706Z,99367.75
2023-03-22T02:40:08.758Z,99376.38
2023-03-22T02:42:56.669Z,99379.75
2023-03-22T02:45:36.912Z,99378.06
2023-03-22T02:48:09.847Z,99381.44
2023-03-22T02:50:53.625Z,99388.16
2023-03-22T02:53:46.130Z,99391.53
2023-03-22T02:56:27.076Z,99392.38
2023-03-22T02:58:57.300Z,99391.53
2023-03-22T03:01:29.280Z,99397.50
2023-03-22T03:04:02.367Z,99398.38
2023-03-22T03:06:33.249Z,99400.06
2023-03-22T03:09:02.727Z,99402.63
2023-03-22T03:11:29.519Z,99405.19
2023-03-22T03:13:56.821Z,99406.97
2023-03-22T03:16:35.030Z,99404.41
2023-03-22T03:19:14.751Z,99408.59
2023-03-22T03:21:46.484Z,99405.16
2023-03-22T03:24:20.851Z,99411.94
2023-03-22T03:26:56.643Z,99408.38
2023-03-22T03:30:12.004Z,99409.28
2023-03-22T03:32:47.943Z,99416.84
2023-03-22T03:35:22.426Z,99415.13
2023-03-22T03:38:08.726Z,99421.00
2023-03-22T03:40:41.226Z,99421.88
2023-03-22T03:43:09.778Z,99426.22
2023-03-22T03:45:37.442Z,99423.69
2023-03-22T03:48:11.866Z,99425.38
2023-03-22T03:50:38.946Z,99436.50
2023-03-22T03:53:05.729Z,99422.06
2023-03-22T03:55:33.493Z,99428.88
2023-03-22T03:58:00.251Z,99430.69
2023-03-22T04:00:27.039Z,99431.63
2023-03-22T04:02:53.613Z,99429.09
2023-03-22T04:05:20.163Z,99429.16
2023-03-22T04:07:46.713Z,99430.00
2023-03-22T04:10:13.310Z,99428.25
2023-03-22T04:12:39.855Z,99424.91
2023-03-22T04:15:06.955Z,99436.00
2023-03-22T04:17:33.502Z,99430.91
2023-03-22T04:20:05.387Z,99430.91
2023-03-22T04:22:34.676Z,99437.66
2023-03-22T04:25:01.677Z,99433.38
2023-03-22T04:27:28.213Z,99433.38
2023-03-22T04:29:55.045Z,99435.13
2023-03-22T04:32:25.138Z,99439.38
2023-03-22T04:34:52.518Z,99436.88
2023-03-22T04:37:22.630Z,99438.66
2023-03-22T04:39:49.184Z,99447.13
2023-03-22T04:42:15.824Z,99448.09
2023-03-22T04:44:42.378Z,99455.78
2023-03-22T04:47:08.927Z,99457.50
2023-03-22T04:49:35.603Z,99449.94
2023-03-22T04:52:03.445Z,99456.75
2023-03-22T04:54:29.977Z,99454.25
2023-03-22T04:56:56.506Z,99454.28
2023-03-22T04:59:23.243Z,99448.31
2023-03-22T05:01:51.451Z,99462.03
2023-03-22T05:04:18.623Z,99458.75
2023-03-22T05:06:46.567Z,99457.91
2023-03-22T05:09:13.799Z,99465.75
2023-03-22T05:11:40.771Z,99459.81
2023-03-22T05:14:09.062Z,99462.47
2023-03-22T05:16:36.091Z,99465.13
2023-03-22T05:19:03.052Z,99466.91
2023-03-22T05:21:36.789Z,99470.44
2023-03-22T05:24:03.572Z,99477.34
2023-03-22T05:26:30.448Z,99471.38
2023-03-22T05:28:57.045Z,99473.94
2023-03-22T05:31:24.156Z,99473.16
2023-03-22T05:33:53.492Z,99485.19
2023-03-22T05:36:23.012Z,99484.44
2023-03-22T05:38:49.900Z,99481.03
2023-03-22T05:41:16.424Z,99488.81
2023-03-22T05:43:43.054Z,99488.13
2023-03-22T05:46:12.071Z,99495.91
2023-03-22T05:48:39.873Z,99505.31
2023-03-22T05:51:10.815Z,99508.13
2023-03-22T05:53:37.351Z,99500.53
2023-03-22T05:56:04.082Z,99519.47
2023-03-22T05:58:31.848Z,99524.69
2023-03-22T06:01:03.330Z,99520.53
2023-03-22T06:03:29.934Z,99521.50
2023-03-22T06:05:56.558Z,99522.44
2023-03-22T06:08:26.387Z,99524.28
2023-03-22T06:10:53.892Z,99521.88
2023-03-22T06:13:21.657Z,99518.56
2023-03-22T06:15:48.206Z,99512.69
2023-03-22T06:18:14.750Z,99521.34
2023-03-22T06:20:41.913Z,99522.34
2023-03-22T06:23:08.942Z,99529.25
2023-03-22T06:25:35.722Z,99527.72
2023-03-22T06:28:02.448Z,99532.94
2023-03-22T06:30:29.070Z,99542.41
2023-03-22T06:32:57.010Z,99537.28
2023-03-22T06:35:23.612Z,99544.25
2023-03-22T06:37:50.155Z,99537.63
2023-03-22T06:40:16.731Z,99542.84
2023-03-22T06:42:43.274Z,99538.66
2023-03-22T06:45:10.355Z,99542.13
2023-03-22T06:47:36.943Z,99541.38
2023-03-22T06:50:03.859Z,99544.84
2023-03-22T06:52:30.464Z,99544.00
2023-03-22T06:54:56.979Z,99552.63
2023-03-22T06:57:23.561Z,99551.03
2023-03-22T06:59:50.249Z,99552.06
2023-03-22T07:02:17.099Z,99548.75
2023-03-22T07:04:46.223Z,99553.19
2023-03-22T07:07:13.523Z,99549.00
2023-03-22T07:09:40.154Z,99562.03
2023-03-22T07:12:07.091Z,99562.09
2023-03-22T07:14:33.943Z,99551.00
2023-03-22T07:17:00.724Z,99552.00
2023-03-22T07:19:28.021Z,99553.88
2023-03-22T07:21:54.522Z,99548.03
2023-03-22T07:24:21.035Z,99551.56
2023-03-22T07:26:47.652Z,99555.19
2023-03-22T07:29:14.250Z,99546.78
2023-03-22T07:31:40.893Z,99540.97
2023-03-22T07:34:07.549Z,99548.00
2023-03-22T07:36:34.104Z,99546.31
2023-03-22T07:39:01.305Z,99548.06
2023-03-22T07:41:30.175Z,99539.66
2023-03-22T07:44:04.933Z,99536.28
2023-03-22T07:46:41.735Z,99539.66
2023-03-22T07:49:08.328Z,99543.97
2023-03-22T07:51:34.864Z,99546.66
2023-03-22T07:54:02.480Z,99543.34
2023-03-22T07:56:28.990Z,99545.78
2023-03-22T07:58:55.543Z,99543.97
2023-03-22T08:01:22.742Z,99560.16
2023-03-22T08:03:49.298Z,99557.66
2023-03-22T08:06:16.330Z,99556.00
2023-03-22T08:08:43.066Z,99551.78
2023-03-22T08:11:09.648Z,99557.09
2023-03-22T08:13:36.241Z,99558.19
2023-03-22T08:16:02.876Z,99556.69
2023-03-22T08:18:29.420Z,99554.22
2023-03-22T08:20:58.059Z,99556.09
2023-03-22T08:23:38.469Z,99561.31
2023-03-22T08:26:07.905Z,99558.88
2023-03-22T08:28:34.450Z,99558.16
2023-03-22T08:31:01.124Z,99556.63
2023-03-22T08:33:28.639Z,99553.22
2023-03-22T08:36:08.467Z,99562.78
2023-03-22T08:38:35.060Z,99558.41
2023-03-22T08:41:01.625Z,99559.13
2023-03-22T08:43:28.208Z,99559.91
2023-03-22T08:45:54.790Z,99563.28
2023-03-22T08:48:21.626Z,99568.47
2023-03-22T08:50:48.233Z,99560.06
2023-03-22T08:53:14.770Z,99561.84
2023-03-22T08:55:44.788Z,99557.56
2023-03-22T08:58:20.121Z,99558.38
2023-03-22T09:00:49.665Z,99558.34
2023-03-22T09:03:17.305Z,99560.00
2023-03-22T09:05:43.996Z,99555.78
2023-03-22T09:08:18.507Z,99555.97
2023-03-22T09:10:51.879Z,99551.88
2023-03-22T09:13:19.300Z,99560.59
2023-03-22T09:15:46.555Z,99566.69
2023-03-22T09:18:13.434Z,99565.00
2023-03-22T09:20:40.336Z,99566.63
2023-03-22T09:23:07.285Z,99557.25
2023-03-22T09:25:33.932Z,99555.66
2023-03-22T09:28:00.483Z,99554.72
2023-03-22T09:30:27.344Z,99547.84
2023-03-22T09:32:54.122Z,99555.63
2023-03-22T09:35:20.896Z,99554.78
2023-03-22T09:37:49.325Z,99554.75
2023-03-22T09:40:17.810Z,99548.59
2023-03-22T09:42:48.580Z,99549.34
2023-03-22T09:45:18.987Z,99553.47
2023-03-22T09:47:56.287Z,99543.09
2023-03-22T09:50:29.976Z,99548.47
2023-03-22T09:52:57.752Z,99550.50
2023-03-22T09:55:26.894Z,99549.78
2023-03-22T09:58:05.850Z,99552.47
2023-03-22T10:00:43.200Z,99549.88
2023-03-22T10:03:28.722Z,99555.94
2023-03-22T10:06:05.068Z,99559.44
2023-03-22T10:08:37.216Z,99557.69
2023-03-22T10:11:09.990Z,99548.19
2023-03-22T10:14:10.754Z,99559.34
2023-03-22T10:16:38.067Z,99546.63
2023-03-22T10:19:22.792Z,99550.03
2023-03-22T10:21:52.677Z,99540.66
2023-03-22T10:24:41.318Z,99540.63
2023-03-22T10:27:15.551Z,99542.31
2023-03-22T10:29:58.598Z,99540.50
2023-03-22T10:32:34.283Z,99545.63
2023-03-22T10:35:00.929Z,99545.59
2023-03-22T10:37:33.780Z,99544.72
2023-03-22T10:40:06.651Z,99540.53
2023-03-22T10:42:37.008Z,99539.78
2023-03-22T10:45:14.519Z,99535.66
2023-03-22T10:48:08.414Z,99538.31
2023-03-22T10:50:36.938Z,99534.09
2023-03-22T10:53:12.737Z,99527.25
2023-03-22T10:55:40.433Z,99529.88
2023-03-22T10:58:21.308Z,99528.81
2023-03-22T11:00:53.651Z,99528.50
2023-03-22T11:03:31.840Z,99515.44
2023-03-22T11:06:05.150Z,99518.03
2023-03-22T11:08:39.701Z,99515.22
2023-03-22T11:11:15.692Z,99513.50
2023-03-22T11:13:42.263Z,99516.03
2023-03-22T11:16:08.845Z,99509.28
2023-03-22T11:18:35.574Z,99504.28
2023-03-22T11:21:11.476Z,99513.41
2023-03-22T11:23:43.852Z,99507.44
2023-03-22T11:26:13.698Z,99509.38
2023-03-22T11:28:49.378Z,99499.75
2023-03-22T11:31:18.818Z,99500.63
2023-03-22T11:34:01.853Z,99494.63
2023-03-22T11:36:29.507Z,99508.66
2023-03-22T11:39:07.472Z,99509.63
2023-03-22T11:41:39.413Z,99508.75
2023-03-22T11:44:10.880Z,99492.50
2023-03-22T11:46:38.522Z,99491.84
2023-03-22T11:49:09.312Z,99486.19
2023-03-22T11:51:38.808Z,99487.75
2023-03-22T11:54:16.764Z,99493.94
2023-03-22T11:56:46.932Z,99485.00
2023-03-22T11:59:16.785Z,99479.91
2023-03-22T12:01:43.269Z,99482.34
2023-03-22T12:04:16.491Z,99484.03
2023-03-22T12:06:43.451Z,99482.91
2023-03-22T12:09:21.666Z,99485.78
2023-03-22T12:11:52.010Z,99474.00
2023-03-22T12:14:33.843Z,99472.81
2023-03-22T12:17:08.083Z,99475.31
2023-03-22T12:19:50.257Z,99470.44
2023-03-22T12:22:21.595Z,99472.03
2023-03-22T12:24:48.148Z,99466.53
2023-03-22T12:27:20.497Z,99470.34
2023-03-22T12:30:05.053Z,99473.03
2023-03-22T12:32:36.810Z,99469.34
2023-03-22T12:35:16.670Z,99470.00
2023-03-22T12:37:48.622Z,99456.53
2023-03-22T12:40:23.278Z,99459.97
2023-03-22T12:42:59.058Z,99464.41
2023-03-22T12:45:29.209Z,99463.44
2023-03-22T12:48:14.168Z,99463.38
2023-03-22T12:50:49.499Z,99463.03
2023-03-22T12:53:19.146Z,99455.53
2023-03-22T12:55:48.165Z,99453.53
2023-03-22T12:58:26.261Z,99465.22
2023-03-22T13:00:58.370Z,99441.97
2023-03-22T13:03:29.885Z,99448.94
2023-03-22T13:06:27.978Z,99451.31
2023-03-22T13:09:03.185Z,99440.44
2023-03-22T13:11:29.835Z,99447.75
2023-03-22T13:13:56.363Z,99451.31
2023-03-22T13:16:24.703Z,99443.84
2023-03-22T13:18:51.231Z,99434.59
2023-03-22T13:21:23.852Z,99437.56
2023-03-22T13:23:58.015Z,99432.94
2023-03-22T13:26:33.459Z,99433.84
2023-03-22T13:29:11.727Z,99436.06
2023-03-22T13:31:53.560Z,99434.38
2023-03-22T13:34:30.239Z,99429.00
2023-03-22T13:36:57.895Z,99425.03
2023-03-22T13:39:27.316Z,99419.91
2023-03-22T13:42:09.004Z,99423.06
2023-03-22T13:44:42.915Z,99413.91
2023-03-22T13:47:31.516Z,99422.63
2023-03-22T13:50:02.600Z,99425.19
2023-03-22T13:52:36.804Z,99419.47
2023-03-22T13:55:14.168Z,99425.50
2023-03-22T13:57:58.977Z,99430.38
2023-03-22T14:00:31.702Z,99418.31
2023-03-22T14:03:14.604Z,99419.94
2023-03-22T14:05:44.258Z,99423.03
2023-03-22T14:08:21.703Z,99419.75
2023-03-22T14:10:58.385Z,99427.03
2023-03-22T14:13:34.828Z,99420.72
2023-03-22T14:16:12.835Z,99426.06
2023-03-22T14:18:43.487Z,99422.31
2023-03-22T14:21:16.528Z,99417.88
